Time;durP1;ratioP1;P1;durP2;ratioP2;P2;SDS_P1;SDS_P2;PMS_P1;PMS_P2;Temp;Humidity;BMP_temperature;BMP_pressure;BME280_temperature;BME280_humidity;BME280_pressure;Samples;Min_cycle;Max_cycle;Signal;HPM_P1;HPM_P2
2022/08/29 00:01:37;;;;;;;1.00;1.00;;;20.10;56.10;;;;;;4984369;28;20030;-72
2022/08/29 00:04:04;;;;;;;0.00;0.00;;;20.10;54.70;;;;;;4981310;28;20029;-72
2022/08/29 00:06:30;;;;;;;0.00;0.00;;;19.90;54.70;;;;;;4994224;28;20030;-72
2022/08/29 00:08:56;;;;;;;8.27;7.88;;;20.00;55.70;;;;;;4991267;28;20035;-72
2022/08/29 00:11:23;;;;;;;0.00;0.00;;;19.90;55.30;;;;;;5027648;28;20113;-72
2022/08/29 00:13:49;;;;;;;0.00;0.00;;;19.80;56.50;;;;;;5008581;28;20174;-71
2022/08/29 00:16:16;;;;;;;0.00;0.00;;;19.90;56.60;;;;;;5000376;28;20071;-71
2022/08/29 00:18:42;;;;;;;0.00;0.00;;;19.90;57.30;;;;;;5020381;28;20383;-71
2022/08/29 00:21:08;;;;;;;0.00;0.00;;;19.80;55.60;;;;;;5021805;28;20476;-71
2022/08/29 00:23:34;;;;;;;0.00;0.00;;;19.90;56.60;;;;;;4995233;28;20038;-71
2022/08/29 00:26:00;;;;;;;0.00;0.00;;;20.00;54.50;;;;;;4992728;28;20026;-72
2022/08/29 00:28:26;;;;;;;1.27;1.25;;;19.90;54.00;;;;;;4988625;28;20093;-72
2022/08/29 00:30:52;;;;;;;0.10;0.10;;;19.90;54.20;;;;;;4989056;28;20101;-71
2022/08/29 00:33:19;;;;;;;0.00;0.00;;;19.90;54.80;;;;;;4983627;28;20057;-72
2022/08/29 00:35:46;;;;;;;0.20;0.20;;;20.00;55.10;;;;;;4982492;28;20048;-72
2022/08/29 00:38:15;;;;;;;0.00;0.00;;;20.20;54.20;;;;;;4979660;28;20104;-73
2022/08/29 00:40:44;;;;;;;0.00;0.00;;;20.20;54.70;;;;;;4982144;28;20034;-72
2022/08/29 00:43:10;;;;;;;0.00;0.00;;;20.30;53.50;;;;;;4990118;28;20470;-72
2022/08/29 00:45:42;;;;;;;0.00;0.00;;;20.30;54.80;;;;;;4992663;28;20050;-71
2022/08/29 00:48:13;;;;;;;0.00;0.00;;;20.10;55.50;;;;;;4984074;28;20031;-72
2022/08/29 00:50:44;;;;;;;8.15;1.55;;;20.10;55.90;;;;;;4986064;28;20027;-71
2022/08/29 00:53:14;;;;;;;0.00;0.00;;;20.10;57.00;;;;;;4995918;28;20115;-72
2022/08/29 00:55:43;;;;;;;0.00;0.00;;;20.10;55.30;;;;;;4991509;28;20084;-72
2022/08/29 00:58:23;;;;;;;2.88;2.78;;;20.20;54.90;;;;;;4990485;28;20018;-72
2022/08/29 01:00:49;;;;;;;0.00;0.00;;;20.40;53.50;;;;;;5000719;28;20480;-72
2022/08/29 01:03:15;;;;;;;0.00;0.00;;;20.40;54.50;;;;;;4996264;28;20499;-72
2022/08/29 01:05:41;;;;;;;0.00;0.00;;;20.40;54.00;;;;;;4982720;28;20057;-72
2022/08/29 01:08:08;;;;;;;0.00;0.00;;;20.30;54.20;;;;;;4985960;28;20027;-71
2022/08/29 01:13:25;;;;;;;0.43;0.38;;;20.50;53.40;;;;;;4980579;28;20053;-73
2022/08/29 01:15:51;;;;;;;0.00;0.00;;;20.80;51.10;;;;;;5008245;28;20034;-73
2022/08/29 01:18:18;;;;;;;0.00;0.00;;;20.90;50.50;;;;;;5023815;28;20038;-73
2022/08/29 01:20:53;;;;;;;0.00;0.00;;;21.00;50.60;;;;;;4988049;28;20415;-73
2022/08/29 01:23:30;;;;;;;0.00;0.00;;;21.00;50.90;;;;;;4984477;28;20065;-72
2022/08/29 01:25:57;;;;;;;27.40;6.60;;;21.00;51.20;;;;;;4983380;28;20030;-73
2022/08/29 01:28:37;;;;;;;0.00;0.00;;;21.10;52.20;;;;;;4984354;28;20061;-73
2022/08/29 01:31:10;;;;;;;0.00;0.00;;;21.20;50.40;;;;;;4985454;28;20023;-73
2022/08/29 01:33:43;;;;;;;0.00;0.00;;;21.40;48.40;;;;;;4983573;28;20047;-73
2022/08/29 01:36:13;;;;;;;0.00;0.00;;;21.40;49.80;;;;;;4984506;28;20497;-73
2022/08/29 01:38:40;;;;;;;0.00;0.00;;;21.40;50.80;;;;;;4982556;28;20030;-72
2022/08/29 01:41:07;;;;;;;0.00;0.00;;;21.40;50.80;;;;;;4983909;28;20031;-73
2022/08/29 01:43:49;;;;;;;0.00;0.00;;;21.50;50.20;;;;;;5013075;28;20121;-73
2022/08/29 01:46:19;;;;;;;0.13;0.13;;;21.50;51.40;;;;;;5007387;28;20058;-73
2022/08/29 01:48:46;;;;;;;0.00;0.00;;;21.60;50.00;;;;;;4993037;28;20026;-74
2022/08/29 01:51:14;;;;;;;0.00;0.00;;;21.90;49.70;;;;;;4982811;28;20377;-72
2022/08/29 01:53:40;;;;;;;0.10;0.10;;;22.00;49.60;;;;;;4991435;28;20113;-73
2022/08/29 01:56:17;;;;;;;0.03;0.03;;;22.00;49.20;;;;;;4997853;28;20040;-73
2022/08/29 01:58:45;;;;;;;0.00;0.00;;;22.00;50.70;;;;;;4981374;28;20027;-73
2022/08/29 02:01:15;;;;;;;0.00;0.00;;;21.90;51.50;;;;;;4986493;28;20088;-73
2022/08/29 02:03:41;;;;;;;0.00;0.00;;;22.00;51.50;;;;;;5023227;28;20180;-73
2022/08/29 02:06:09;;;;;;;0.00;0.00;;;22.00;50.00;;;;;;4996192;28;20109;-73
2022/08/29 02:08:37;;;;;;;0.00;0.00;;;22.10;49.00;;;;;;4994985;28;20400;-72
2022/08/29 02:11:08;;;;;;;0.00;0.00;;;22.10;51.30;;;;;;5018540;28;20021;-73
2022/08/29 02:13:36;;;;;;;0.00;0.00;;;22.30;49.40;;;;;;4993147;28;20064;-74
2022/08/29 02:16:02;;;;;;;0.00;0.00;;;22.30;50.10;;;;;;5005797;28;20060;-74
2022/08/29 02:18:29;;;;;;;0.00;0.00;;;22.40;51.20;;;;;;5006212;28;20126;-74
2022/08/29 02:20:55;;;;;;;0.00;0.00;;;22.60;48.70;;;;;;5006546;28;20028;-74
2022/08/29 02:23:21;;;;;;;0.00;0.00;;;22.90;50.40;;;;;;5023378;28;20038;-74
2022/08/29 02:25:48;;;;;;;0.00;0.00;;;22.90;48.80;;;;;;5021287;28;20023;-74
2022/08/29 02:28:17;;;;;;;0.28;0.28;;;22.90;50.60;;;;;;5013619;28;20029;-74
2022/08/29 02:30:47;;;;;;;0.00;0.00;;;22.90;50.30;;;;;;5003389;28;20084;-74
2022/08/29 02:33:15;;;;;;;0.00;0.00;;;23.10;50.00;;;;;;5024327;28;20077;-74
2022/08/29 02:35:42;;;;;;;0.00;0.00;;;23.40;50.40;;;;;;5005797;28;20030;-74
2022/08/29 02:38:10;;;;;;;0.28;0.28;;;23.40;49.30;;;;;;5024159;28;20355;-74
2022/08/29 02:40:36;;;;;;;3.70;3.60;;;23.40;49.90;;;;;;5044345;28;20033;-74
2022/08/29 02:43:04;;;;;;;0.30;0.17;;;23.60;50.50;;;;;;4997000;28;20156;-74
2022/08/29 02:45:30;;;;;;;0.00;0.00;;;24.00;50.40;;;;;;4990274;28;20785;-74
2022/08/29 02:48:05;;;;;;;5.25;1.48;;;24.20;50.90;;;;;;4992929;28;20027;-75
2022/08/29 02:50:32;;;;;;;6.22;1.75;;;24.20;49.20;;;;;;4992277;28;20377;-74
2022/08/29 02:52:59;;;;;;;23.92;11.13;;;23.80;50.40;;;;;;5005718;28;20472;-74
2022/08/29 02:55:25;;;;;;;4.90;2.78;;;23.00;50.90;;;;;;4988827;28;20034;-73
2022/08/29 02:57:53;;;;;;;5.75;2.92;;;21.70;53.50;;;;;;5009957;28;20119;-73
2022/08/29 03:00:24;;;;;;;13.18;5.75;;;21.20;54.70;;;;;;5017097;28;20069;-76
2022/08/29 03:02:51;;;;;;;20.88;5.60;;;21.10;54.50;;;;;;5000267;28;20031;-73
2022/08/29 03:05:21;;;;;;;2.03;1.85;;;21.30;52.80;;;;;;5006934;28;20030;-72
2022/08/29 03:07:47;;;;;;;11.82;6.07;;;21.30;52.70;;;;;;4993971;28;20035;-72
2022/08/29 03:10:14;;;;;;;5.82;5.43;;;21.30;51.50;;;;;;4987841;28;20060;-76
2022/08/29 03:13:19;;;;;;;1.85;1.75;;;21.40;52.60;;;;;;5003120;28;20125;-73
2022/08/29 03:15:46;;;;;;;6.78;3.63;;;21.70;51.40;;;;;;5039000;28;20049;-75
2022/08/29 03:18:13;;;;;;;3.60;1.58;;;21.90;49.90;;;;;;5022125;28;20061;-74
2022/08/29 03:20:40;;;;;;;8.77;4.95;;;21.80;49.90;;;;;;4997099;28;20029;-75
2022/08/29 03:23:07;;;;;;;7.15;4.38;;;22.00;49.50;;;;;;5003313;28;20035;-73
2022/08/29 03:25:34;;;;;;;0.98;0.98;;;22.10;49.20;;;;;;5003440;28;20034;-74
2022/08/29 03:28:01;;;;;;;8.15;4.25;;;22.10;48.80;;;;;;4997636;28;20541;-74
2022/08/29 03:30:28;;;;;;;15.70;13.90;;;22.50;47.50;;;;;;4990745;28;20027;-75
2022/08/29 03:32:56;;;;;;;1.75;1.65;;;22.30;47.30;;;;;;4989458;28;20109;-73
2022/08/29 03:35:23;;;;;;;4.72;3.95;;;22.40;46.70;;;;;;5000133;28;20475;-74
2022/08/29 03:37:52;;;;;;;3.53;3.38;;;22.50;45.80;;;;;;5076208;28;20030;-75
2022/08/29 03:40:19;;;;;;;1.08;1.02;;;22.50;46.70;;;;;;5001633;28;20403;-74
2022/08/29 03:42:45;;;;;;;3.58;3.40;;;22.80;45.40;;;;;;4999329;28;20030;-74
2022/08/29 03:45:13;;;;;;;8.95;5.70;;;23.00;46.10;;;;;;4995151;28;20045;-74
2022/08/29 03:47:40;;;;;;;2.28;1.85;;;23.10;45.30;;;;;;4990991;28;20022;-72
2022/08/29 03:50:07;;;;;;;0.28;0.28;;;23.20;45.00;;;;;;5008683;28;20034;-74
2022/08/29 03:52:33;;;;;;;14.25;9.73;;;23.40;44.60;;;;;;4989668;28;20505;-74
2022/08/29 03:54:59;;;;;;;3.00;2.70;;;23.50;44.60;;;;;;4995054;28;20033;-75
2022/08/29 03:57:26;;;;;;;4.97;4.68;;;23.60;44.20;;;;;;5005570;28;20456;-75
2022/08/29 03:59:52;;;;;;;1.85;1.42;;;23.70;43.80;;;;;;4984689;28;20051;-75
2022/08/29 04:02:19;;;;;;;0.52;0.47;;;23.90;43.60;;;;;;4986248;28;20030;-75
2022/08/29 04:07:35;;;;;;;2.92;1.35;;;24.10;43.30;;;;;;5001232;28;20518;-75
2022/08/29 04:10:04;;;;;;;1.58;1.17;;;24.30;42.60;;;;;;4983093;28;20137;-73
2022/08/29 04:12:30;;;;;;;6.35;4.85;;;24.30;42.90;;;;;;4989209;28;20018;-73
2022/08/29 04:14:56;;;;;;;2.08;1.88;;;24.30;42.70;;;;;;4994469;28;20022;-73
2022/08/29 04:17:22;;;;;;;4.75;2.75;;;24.40;42.80;;;;;;4992360;28;20034;-72
2022/08/29 04:19:48;;;;;;;3.70;1.65;;;24.60;41.80;;;;;;4986941;28;20034;-72
2022/08/29 04:22:14;;;;;;;6.70;1.73;;;24.50;42.10;;;;;;4988981;28;20026;-72
2022/08/29 04:24:41;;;;;;;5.03;3.03;;;24.60;42.00;;;;;;4987566;28;20377;-74
2022/08/29 04:27:07;;;;;;;1.17;1.10;;;24.70;42.20;;;;;;4984284;28;20024;-73
2022/08/29 04:29:34;;;;;;;3.30;2.42;;;24.70;42.20;;;;;;5002218;28;20101;-73
2022/08/29 04:32:00;;;;;;;2.42;1.25;;;24.90;41.90;;;;;;4988462;28;20015;-73
2022/08/29 04:34:26;;;;;;;2.78;2.33;;;24.80;41.80;;;;;;4984998;28;20050;-73
2022/08/29 04:36:52;;;;;;;3.17;0.95;;;24.60;42.40;;;;;;4984263;28;20027;-72
2022/08/29 04:39:18;;;;;;;5.05;2.50;;;24.90;42.20;;;;;;4986166;28;20109;-73
2022/08/29 04:41:48;;;;;;;4.47;2.50;;;25.20;41.80;;;;;;4985669;28;20045;-74
2022/08/29 04:44:14;;;;;;;4.28;1.63;;;25.20;41.50;;;;;;4985490;28;20033;-73
2022/08/29 04:46:40;;;;;;;1.33;1.00;;;25.10;41.90;;;;;;4988680;28;20018;-73
2022/08/29 04:49:07;;;;;;;3.45;1.85;;;25.20;42.00;;;;;;4989200;28;20030;-74
2022/08/29 04:51:35;;;;;;;0.43;0.15;;;25.30;42.20;;;;;;4986349;28;20035;-71
2022/08/29 04:54:03;;;;;;;0.93;0.63;;;25.40;41.80;;;;;;4986107;28;20110;-73
2022/08/29 04:56:29;;;;;;;1.27;0.57;;;25.40;42.60;;;;;;5001841;28;20127;-73
2022/08/29 04:58:55;;;;;;;4.45;2.63;;;25.60;41.80;;;;;;4989201;28;20119;-72
2022/08/29 05:01:23;;;;;;;1.10;0.82;;;25.60;42.00;;;;;;5002526;28;20076;-73
2022/08/29 05:03:52;;;;;;;0.98;0.70;;;25.60;42.30;;;;;;4993982;28;20026;-73
2022/08/29 05:06:20;;;;;;;0.45;0.45;;;25.70;42.50;;;;;;4995011;28;20499;-73
2022/08/29 05:08:46;;;;;;;1.55;1.17;;;25.70;43.20;;;;;;4995507;28;20026;-73
2022/08/29 05:11:16;;;;;;;4.05;3.55;;;25.80;43.70;;;;;;4991709;28;20041;-72
2022/08/29 05:13:43;;;;;;;4.20;3.80;;;26.00;43.30;;;;;;5005836;28;20465;-73
2022/08/29 05:16:13;;;;;;;2.08;0.88;;;25.90;43.10;;;;;;4997701;28;20464;-72
2022/08/29 05:18:40;;;;;;;0.00;0.00;;;26.00;42.80;;;;;;5040794;28;20158;-72
2022/08/29 05:21:06;;;;;;;2.78;1.40;;;26.00;42.80;;;;;;4994176;28;20473;-72
2022/08/29 05:23:33;;;;;;;0.63;0.50;;;25.90;41.70;;;;;;4989857;28;20027;-73
2022/08/29 05:26:01;;;;;;;0.00;0.00;;;25.90;41.50;;;;;;4988523;28;20031;-72
2022/08/29 05:28:30;;;;;;;0.40;0.40;;;26.00;41.50;;;;;;4997752;28;20018;-74
2022/08/29 05:30:56;;;;;;;3.10;2.83;;;26.20;41.70;;;;;;4993118;28;20029;-73
2022/08/29 05:33:22;;;;;;;5.10;1.08;;;26.20;42.40;;;;;;5005156;28;20072;-73
2022/08/29 05:35:49;;;;;;;0.95;0.95;;;26.40;41.40;;;;;;4997025;28;20466;-72
2022/08/29 05:38:15;;;;;;;1.20;1.10;;;26.50;41.40;;;;;;4989412;28;20200;-73
2022/08/29 05:40:42;;;;;;;0.10;0.00;;;26.40;41.00;;;;;;5021121;28;20054;-73
2022/08/29 05:43:09;;;;;;;0.20;0.15;;;26.20;41.80;;;;;;5000678;28;20024;-73
2022/08/29 05:45:37;;;;;;;0.45;0.30;;;26.30;42.40;;;;;;4999748;28;20027;-74
2022/08/29 05:48:04;;;;;;;0.82;0.55;;;26.30;41.90;;;;;;4993957;28;20023;-73
2022/08/29 05:50:36;;;;;;;0.15;0.15;;;26.50;40.50;;;;;;4998728;28;20352;-74
2022/08/29 05:53:02;;;;;;;0.00;0.00;;;26.50;40.30;;;;;;4998901;28;20534;-72
2022/08/29 05:55:28;;;;;;;0.40;0.40;;;26.70;38.50;;;;;;4995328;28;20034;-73
2022/08/29 05:57:54;;;;;;;0.80;0.80;;;26.50;37.80;;;;;;4988682;28;20577;-72
2022/08/29 06:00:20;;;;;;;0.20;0.20;;;26.50;38.20;;;;;;4988446;28;20032;-74
2022/08/29 06:02:46;;;;;;;7.82;6.05;;;26.70;37.00;;;;;;5002178;28;20043;-74
2022/08/29 06:05:13;;;;;;;0.05;0.05;;;26.70;38.10;;;;;;4999710;28;20353;-73
2022/08/29 06:07:39;;;;;;;0.35;0.35;;;26.60;39.00;;;;;;4983880;28;20060;-71
2022/08/29 06:10:07;;;;;;;0.00;0.00;;;26.80;37.80;;;;;;4996929;28;20033;-71
2022/08/29 06:12:33;;;;;;;0.00;0.00;;;26.70;38.00;;;;;;5004097;28;20520;-72
2022/08/29 06:15:00;;;;;;;0.65;0.52;;;27.00;37.90;;;;;;4996975;28;20047;-72
2022/08/29 06:17:26;;;;;;;0.32;0.28;;;27.20;38.60;;;;;;5012948;28;20045;-72
2022/08/29 06:19:52;;;;;;;0.00;0.00;;;27.30;38.00;;;;;;4993552;28;20049;-72
2022/08/29 06:22:21;;;;;;;0.00;0.00;;;27.10;37.50;;;;;;4991217;28;20042;-74
2022/08/29 06:24:50;;;;;;;0.30;0.25;;;26.80;38.30;;;;;;4992489;28;20030;-73
2022/08/29 06:27:19;;;;;;;0.03;0.03;;;26.90;37.50;;;;;;5000081;28;20016;-71
2022/08/29 06:29:45;;;;;;;2.35;2.20;;;26.90;38.20;;;;;;4990351;28;20030;-72
2022/08/29 06:32:12;;;;;;;0.20;0.20;;;27.20;36.70;;;;;;4993209;28;20095;-72
2022/08/29 06:34:39;;;;;;;0.10;0.10;;;27.10;35.80;;;;;;4987419;28;20077;-73
2022/08/29 06:37:05;;;;;;;0.00;0.00;;;27.00;36.40;;;;;;4989445;28;20074;-72
2022/08/29 06:39:31;;;;;;;0.10;0.10;;;27.30;35.70;;;;;;4983460;28;20030;-73
2022/08/29 06:41:57;;;;;;;0.82;0.68;;;27.60;35.70;;;;;;4990260;28;20484;-73
2022/08/29 06:44:25;;;;;;;0.00;0.00;;;27.70;35.70;;;;;;4991234;28;20037;-72
2022/08/29 06:46:51;;;;;;;4.18;0.52;;;27.80;34.40;;;;;;4988849;28;20507;-72
2022/08/29 06:49:19;;;;;;;38.00;7.22;;;27.60;34.50;;;;;;4986285;28;20354;-73
2022/08/29 06:51:53;;;;;;;0.65;0.65;;;27.50;35.60;;;;;;5000555;28;20030;-72
2022/08/29 06:54:22;;;;;;;1.35;0.98;;;27.60;35.90;;;;;;4994507;28;20559;-72
2022/08/29 06:56:49;;;;;;;4.85;2.92;;;27.50;35.10;;;;;;4996860;28;20031;-73
2022/08/29 06:59:17;;;;;;;0.52;0.52;;;27.60;35.00;;;;;;4986289;28;21424;-72
2022/08/29 07:01:44;;;;;;;0.30;0.22;;;27.60;34.10;;;;;;4992122;28;20049;-72
2022/08/29 07:04:12;;;;;;;0.00;0.00;;;27.60;35.20;;;;;;4993060;28;20392;-74
2022/08/29 07:06:39;;;;;;;3.45;3.08;;;27.40;36.00;;;;;;4986434;28;20071;-72
2022/08/29 07:09:06;;;;;;;0.30;0.30;;;27.40;35.40;;;;;;4985990;28;20042;-73
2022/08/29 07:11:33;;;;;;;3.85;3.35;;;27.40;35.90;;;;;;5003649;28;20022;-73
2022/08/29 07:14:02;;;;;;;0.90;0.22;;;27.60;35.40;;;;;;4993704;28;20092;-73
2022/08/29 07:16:29;;;;;;;0.10;0.10;;;27.50;35.40;;;;;;4996205;28;20396;-72
2022/08/29 07:18:55;;;;;;;0.00;0.00;;;27.50;35.90;;;;;;5000688;28;20027;-72
2022/08/29 07:21:23;;;;;;;0.00;0.00;;;27.60;35.40;;;;;;4994995;28;20034;-72
2022/08/29 07:23:51;;;;;;;0.00;0.00;;;27.70;35.30;;;;;;4998366;28;20030;-74
2022/08/29 07:26:19;;;;;;;0.00;0.00;;;27.60;35.60;;;;;;4999860;28;20057;-73
2022/08/29 07:28:47;;;;;;;0.00;0.00;;;27.40;36.60;;;;;;4984107;28;20057;-73
2022/08/29 07:31:14;;;;;;;0.00;0.00;;;27.50;36.90;;;;;;4999038;28;20404;-73
2022/08/29 07:33:40;;;;;;;0.00;0.00;;;27.70;36.40;;;;;;4998712;28;20062;-73
2022/08/29 07:36:09;;;;;;;0.00;0.00;;;27.70;36.80;;;;;;4998627;28;20071;-74
2022/08/29 07:38:36;;;;;;;0.00;0.00;;;27.70;36.60;;;;;;5016118;28;20098;-72
2022/08/29 07:41:06;;;;;;;2.05;1.95;;;27.90;41.20;;;;;;4991569;28;20095;-72
2022/08/29 07:43:33;;;;;;;0.00;0.00;;;27.90;42.20;;;;;;4989144;28;20046;-73
2022/08/29 07:46:12;;;;;;;0.00;0.00;;;28.00;39.30;;;;;;4990006;28;20515;-73
2022/08/29 07:48:40;;;;;;;0.73;0.55;;;28.20;38.20;;;;;;4996784;28;20049;-72
2022/08/29 07:51:08;;;;;;;0.00;0.00;;;28.10;37.70;;;;;;4993605;28;20223;-72
2022/08/29 07:53:34;;;;;;;0.00;0.00;;;28.20;37.70;;;;;;5001729;28;20064;-72
2022/08/29 07:56:07;;;;;;;0.35;0.35;;;28.10;37.20;;;;;;4990125;28;20026;-74
2022/08/29 07:58:33;;;;;;;0.00;0.00;;;28.10;36.80;;;;;;5005662;28;20030;-73
2022/08/29 08:00:59;;;;;;;0.00;0.00;;;28.20;36.80;;;;;;4992265;28;20507;-73
2022/08/29 08:03:26;;;;;;;0.38;0.38;;;28.10;36.80;;;;;;5006187;28;20054;-73
2022/08/29 08:05:52;;;;;;;0.00;0.00;;;28.10;36.20;;;;;;5021731;28;20463;-72
2022/08/29 08:08:18;;;;;;;0.00;0.00;;;28.10;36.50;;;;;;5018152;28;20030;-73
2022/08/29 08:10:48;;;;;;;0.00;0.00;;;28.10;36.90;;;;;;4995679;28;20035;-73
2022/08/29 08:13:14;;;;;;;0.00;0.00;;;28.10;37.00;;;;;;4994554;28;20468;-72
2022/08/29 08:15:40;;;;;;;0.52;0.52;;;28.10;36.80;;;;;;5004776;28;20252;-73
2022/08/29 08:18:06;;;;;;;0.00;0.00;;;28.00;36.70;;;;;;4996707;28;20043;-73
2022/08/29 08:20:34;;;;;;;3.65;3.33;;;27.90;36.50;;;;;;4987894;28;20037;-73
2022/08/29 08:23:00;;;;;;;0.47;0.47;;;28.00;37.10;;;;;;4986873;28;20034;-73
2022/08/29 08:25:26;;;;;;;0.00;0.00;;;28.00;36.80;;;;;;4988974;28;20493;-73
2022/08/29 08:27:53;;;;;;;0.00;0.00;;;28.20;37.50;;;;;;4994676;28;20038;-73
2022/08/29 08:30:20;;;;;;;0.25;0.13;;;28.20;38.10;;;;;;5004683;28;20024;-74
2022/08/29 08:32:47;;;;;;;0.10;0.10;;;28.60;35.00;;;;;;4988391;28;20031;-73
2022/08/29 08:35:18;;;;;;;0.00;0.00;;;29.00;35.30;;;;;;4991993;28;20021;-73
2022/08/29 08:37:45;;;;;;;0.13;0.13;;;29.10;35.60;;;;;;5004954;28;20072;-74
2022/08/29 08:40:26;;;;;;;0.00;0.00;;;28.90;35.30;;;;;;5002206;28;20531;-74
2022/08/29 08:42:59;;;;;;;0.88;0.88;;;29.00;35.00;;;;;;4997014;28;20053;-74
2022/08/29 08:45:45;;;;;;;3.53;3.42;;;28.90;34.30;;;;;;4996320;28;20034;-73
2022/08/29 08:48:36;;;;;;;0.00;0.00;;;29.10;34.80;;;;;;4994688;28;20116;-73
2022/08/29 08:51:13;;;;;;;0.25;0.10;;;29.30;33.70;;;;;;5001625;28;20020;-73
2022/08/29 08:53:53;;;;;;;0.00;0.00;;;29.30;34.40;;;;;;5010866;28;20494;-73
2022/08/29 08:56:33;;;;;;;0.00;0.00;;;29.40;34.50;;;;;;5015527;28;20079;-73
2022/08/29 08:59:42;;;;;;;0.00;0.00;;;29.50;33.70;;;;;;4994745;28;20133;-73
2022/08/29 09:02:34;;;;;;;0.10;0.10;;;29.50;33.30;;;;;;4986694;28;20379;-73
2022/08/29 09:05:31;;;;;;;0.00;0.00;;;29.30;34.50;;;;;;4990043;28;20148;-74
2022/08/29 09:08:09;;;;;;;0.08;0.08;;;29.10;34.70;;;;;;4986755;28;20053;-73
2022/08/29 09:11:10;;;;;;;0.00;0.00;;;29.20;34.10;;;;;;4985800;28;20069;-73
2022/08/29 09:14:02;;;;;;;0.00;0.00;;;29.40;34.00;;;;;;4988709;28;20430;-72
2022/08/29 09:16:41;;;;;;;0.00;0.00;;;29.40;33.70;;;;;;4994497;28;20128;-73
2022/08/29 09:19:11;;;;;;;1.38;0.70;;;29.30;33.10;;;;;;4991335;28;20044;-73
2022/08/29 09:21:47;;;;;;;0.20;0.20;;;29.30;32.80;;;;;;4988743;28;20034;-73
2022/08/29 09:24:39;;;;;;;0.00;0.00;;;28.70;35.40;;;;;;4995497;28;20038;-74
2022/08/29 09:27:05;;;;;;;0.38;0.38;;;27.90;37.40;;;;;;4993692;28;20022;-73
2022/08/29 09:29:31;;;;;;;1.27;0.82;;;27.60;37.90;;;;;;4994772;28;20022;-72
2022/08/29 09:32:13;;;;;;;8.68;1.27;;;27.60;38.60;;;;;;4986540;28;20026;-72
2022/08/29 09:34:45;;;;;;;15.50;0.90;;;27.20;39.00;;;;;;5069163;28;20043;-74
2022/08/29 09:37:30;;;;;;;5.47;4.68;;;26.70;40.30;;;;;;4995376;28;20022;-72
2022/08/29 09:40:19;;;;;;;1.60;0.38;;;26.70;40.50;;;;;;4986729;28;20045;-75
2022/08/29 09:43:01;;;;;;;4.07;2.40;;;26.60;40.60;;;;;;4985987;28;20370;-73
2022/08/29 09:45:28;;;;;;;0.00;0.00;;;26.30;41.80;;;;;;4987233;28;20026;-74
2022/08/29 09:48:13;;;;;;;0.10;0.10;;;25.90;42.60;;;;;;4986167;28;20373;-75
2022/08/29 09:50:39;;;;;;;0.00;0.00;;;26.10;42.50;;;;;;4987692;28;20026;-74
2022/08/29 09:53:06;;;;;;;4.35;2.17;;;25.90;43.10;;;;;;4987573;28;20033;-75
2022/08/29 09:55:43;;;;;;;0.90;0.28;;;25.40;45.70;;;;;;4986084;28;20027;-75
2022/08/29 09:58:28;;;;;;;0.80;0.30;;;25.10;45.60;;;;;;4985065;28;20375;-75
2022/08/29 10:01:05;;;;;;;3.80;1.08;;;24.80;46.20;;;;;;5061533;28;20308;-74
2022/08/29 10:03:40;;;;;;;0.55;0.55;;;24.30;46.40;;;;;;4985318;28;20377;-74
2022/08/29 10:06:28;;;;;;;7.22;1.05;;;24.20;47.10;;;;;;4985013;28;20126;-76
2022/08/29 10:09:23;;;;;;;0.30;0.20;;;24.00;47.60;;;;;;4980968;28;20027;-75
2022/08/29 10:12:02;;;;;;;0.20;0.03;;;24.00;47.40;;;;;;5003244;28;20424;-75
2022/08/29 10:14:46;;;;;;;1.55;0.90;;;24.20;47.20;;;;;;4991215;28;20480;-74
2022/08/29 10:20:08;;;;;;;3.70;0.22;;;24.20;47.60;;;;;;4987161;28;20034;-75
2022/08/29 10:22:43;;;;;;;0.22;0.22;;;24.40;48.70;;;;;;4997217;28;20038;-74
2022/08/29 10:25:19;;;;;;;0.17;0.10;;;24.40;49.00;;;;;;4991092;28;20109;-72
2022/08/29 10:28:00;;;;;;;1.55;0.22;;;;;;;;;;4987970;28;21325;-78
2022/08/29 10:30:29;;;;;;;0.10;0.10;;;;;;;;;;4991357;28;20037;-77
2022/08/29 10:32:58;;;;;;;0.00;0.00;;;;;;;;;;4990243;28;20424;-77
2022/08/29 10:35:28;;;;;;;0.05;0.03;;;;;;;;;;4987274;28;20022;-77
2022/08/29 10:37:57;;;;;;;0.00;0.00;;;;;;;;;;4981740;28;20027;-76
2022/08/29 10:40:24;;;;;;;0.10;0.10;;;;;;;;;;4989530;28;20033;-78
2022/08/29 10:42:52;;;;;;;0.00;0.00;;;;;;;;;;4990453;28;20404;-77
2022/08/29 10:45:34;;;;;;;1.48;1.38;;;;;;;;;;4987661;28;20039;-79
2022/08/29 10:48:17;;;;;;;21.30;5.25;;;;;;;;;;5000010;28;20024;-77
2022/08/29 10:50:50;;;;;;;0.00;0.00;;;;;;;;;;4994822;28;20527;-77
2022/08/29 10:53:29;;;;;;;0.00;0.00;;;;;;;;;;4982279;28;20041;-79
2022/08/29 10:55:57;;;;;;;0.00;0.00;;;;;;;;;;4991569;28;20027;-78
2022/08/29 10:58:24;;;;;;;0.00;0.00;;;;;;;;;;4991012;28;20373;-78
2022/08/29 11:01:11;;;;;;;0.00;0.00;;;;;;;;;;4987728;28;20710;-78
2022/08/29 11:03:48;;;;;;;0.25;0.20;;;;;;;;;;4996847;28;20072;-77
2022/08/29 11:06:20;;;;;;;0.00;0.00;;;;;;;;;;4989125;28;20077;-77
2022/08/29 11:08:50;;;;;;;0.00;0.00;;;;;;;;;;4985856;28;20122;-79
2022/08/29 11:11:18;;;;;;;0.10;0.10;;;;;;;;;;4985017;28;20030;-79
2022/08/29 11:13:47;;;;;;;0.28;0.28;;;;;;;;;;4984920;28;20075;-80
2022/08/29 11:16:27;;;;;;;0.00;0.00;;;;;;;;;;4986736;28;20166;-80
2022/08/29 11:19:04;;;;;;;0.00;0.00;;;;;;;;;;4981265;28;20380;-80
2022/08/29 11:21:46;;;;;;;0.00;0.00;;;;;;;;;;4981151;28;20561;-80
2022/08/29 11:24:14;;;;;;;0.00;0.00;;;;;;;;;;4984434;28;20042;-80
2022/08/29 11:26:43;;;;;;;0.00;0.00;;;;;;;;;;4989351;28;20071;-78
2022/08/29 11:29:10;;;;;;;0.00;0.00;;;;;;;;;;4993243;28;20021;-77
2022/08/29 11:31:37;;;;;;;0.13;0.10;;;;;;;;;;4987889;28;20037;-78
2022/08/29 11:34:13;;;;;;;0.00;0.00;;;;;;;;;;4991527;28;20427;-81
2022/08/29 11:36:59;;;;;;;0.82;0.82;;;;;;;;;;5006204;28;20045;-83
2022/08/29 11:39:28;;;;;;;0.00;0.00;;;;;;;;;;4990667;28;20027;-82
2022/08/29 11:41:56;;;;;;;0.00;0.00;;;;;;;;;;4989360;28;20026;-83
2022/08/29 11:44:42;;;;;;;0.03;0.03;;;;;;;;;;4983498;28;20068;-80
2022/08/29 11:47:27;;;;;;;1.00;1.00;;;;;;;;;;4992826;28;20055;-82
2022/08/29 11:49:53;;;;;;;0.00;0.00;;;;;;;;;;5016912;28;20566;-81
2022/08/29 11:52:22;;;;;;;0.00;0.00;;;;;;;;;;4987598;28;20132;-83
2022/08/29 11:55:07;;;;;;;0.60;0.57;;;;;;;;;;5012216;28;20061;-80
2022/08/29 11:57:34;;;;;;;0.00;0.00;;;;;;;;;;5000353;28;20030;-80
2022/08/29 12:00:01;;;;;;;0.10;0.10;;;;;;;;;;4985247;28;20102;-79
2022/08/29 12:02:28;;;;;;;0.65;0.45;;;;;;;;;;4981752;28;20030;-81
2022/08/29 12:05:13;;;;;;;0.00;0.00;;;;;;;;;;4983527;28;20043;-81
2022/08/29 12:07:47;;;;;;;0.00;0.00;;;;;;;;;;5003420;28;20033;-82
2022/08/29 12:10:22;;;;;;;0.00;0.00;;;;;;;;;;4995307;28;20376;-81
2022/08/29 12:12:55;;;;;;;0.00;0.00;;;;;;;;;;5066683;28;20022;-82
2022/08/29 12:15:37;;;;;;;0.00;0.00;;;;;;;;;;4997067;28;20091;-83
2022/08/29 12:18:12;;;;;;;0.00;0.00;;;;;;;;;;4984896;28;20325;-83
2022/08/29 12:20:47;;;;;;;0.00;0.00;;;;;;;;;;4986545;28;20488;-82
2022/08/29 12:23:13;;;;;;;0.50;0.50;;;;;;;;;;4998422;28;20030;-81
2022/08/29 12:25:43;;;;;;;0.00;0.00;;;;;;;;;;4987501;28;20037;-82
2022/08/29 12:28:16;;;;;;;0.00;0.00;;;;;;;;;;4987225;28;20050;-80
2022/08/29 12:30:50;;;;;;;0.00;0.00;;;;;;;;;;4985048;28;20590;-81
2022/08/29 12:33:22;;;;;;;0.15;0.15;;;;;;;;;;4987979;28;20127;-81
2022/08/29 12:36:09;;;;;;;0.10;0.10;;;;;;;;;;5015943;28;20496;-74
2022/08/29 12:38:48;;;;;;;0.00;0.00;;;;;;;;;;5019370;28;20026;-74
2022/08/29 12:41:33;;;;;;;0.00;0.00;;;;;;;;;;5027475;28;20022;-74
2022/08/29 12:44:02;;;;;;;0.10;0.10;;;;;;;;;;5006550;28;20439;-74
2022/08/29 12:46:34;;;;;;;6.00;5.57;;;;;;;;;;5004566;28;20036;-74
2022/08/29 12:49:11;;;;;;;0.00;0.00;;;;;;;;;;5007599;28;20030;-74
2022/08/29 12:51:42;;;;;;;0.00;0.00;;;;;;;;;;5000039;28;20027;-73
2022/08/29 12:54:10;;;;;;;0.00;0.00;;;;;;;;;;5006216;28;20041;-74
2022/08/29 12:56:40;;;;;;;0.00;0.00;;;;;;;;;;5005894;28;20026;-74
2022/08/29 12:59:06;;;;;;;0.00;0.00;;;;;;;;;;5003500;28;20038;-74
2022/08/29 13:01:39;;;;;;;0.30;0.22;;;;;;;;;;5001364;28;20368;-75
2022/08/29 13:04:13;;;;;;;0.20;0.20;;;;;;;;;;5029162;28;20017;-75
2022/08/29 13:06:59;;;;;;;0.00;0.00;;;;;;;;;;5013812;28;20380;-74
2022/08/29 13:09:27;;;;;;;4.47;3.08;;;;;;;;;;5022095;28;20563;-75
2022/08/29 13:12:16;;;;;;;0.20;0.20;;;;;;;;;;5009397;28;20075;-74
2022/08/29 13:15:09;;;;;;;9.95;5.78;;;;;;;;;;5003019;28;20128;-74
2022/08/29 13:17:38;;;;;;;0.82;0.80;;;;;;;;;;5030653;28;20042;-74
2022/08/29 13:20:23;;;;;;;1.08;0.50;;;;;;;;;;5003842;28;20056;-74
2022/08/29 13:22:49;;;;;;;5.15;2.70;;;;;;;;;;5002292;28;20033;-75
2022/08/29 13:25:18;;;;;;;3.15;2.22;;;;;;;;;;5003961;28;20117;-73
2022/08/29 13:27:47;;;;;;;3.28;1.67;;;;;;;;;;5015522;28;20109;-74
2022/08/29 13:30:23;;;;;;;0.32;0.32;;;;;;;;;;5014124;28;20360;-74
2022/08/29 13:32:50;;;;;;;2.00;1.25;;;;;;;;;;4987230;28;20113;-74
2022/08/29 13:35:27;;;;;;;8.80;2.72;;;;;;;;;;5003912;28;20026;-75
2022/08/29 13:38:09;;;;;;;8.73;1.83;;;;;;;;;;5006110;28;20099;-74